createdAt,value
2018-11-07T00:00:33.971Z,6.91
2018-11-07T00:01:33.906Z,6.92
2018-11-07T00:02:33.866Z,6.87
2018-11-07T00:03:33.829Z,6.76
2018-11-07T00:04:33.796Z,6.80
2018-11-07T00:05:33.774Z,6.70
2018-11-07T00:06:33.698Z,6.66
2018-11-07T00:07:33.659Z,6.67
2018-11-07T00:08:33.748Z,6.64
2018-11-07T00:09:33.578Z,6.71
2018-11-07T00:10:33.531Z,6.76
2018-11-07T00:11:33.487Z,6.46
2018-11-07T00:12:33.448Z,6.44
2018-11-07T00:13:33.426Z,6.56
2018-11-07T00:14:33.361Z,6.56
2018-11-07T00:15:33.325Z,6.56
2018-11-07T00:16:33.305Z,6.56
2018-11-07T00:17:33.257Z,6.52
2018-11-07T00:18:33.193Z,6.52
2018-11-07T00:19:33.222Z,6.73
2018-11-07T00:20:33.138Z,6.69
2018-11-07T00:21:33.075Z,6.70
2018-11-07T00:22:33.067Z,6.61
2018-11-07T00:23:33.006Z,6.54
2018-11-07T00:24:32.972Z,6.56
2018-11-07T00:25:32.911Z,6.66
2018-11-07T00:26:32.985Z,6.76
2018-11-07T00:27:32.834Z,6.89
2018-11-07T00:28:32.820Z,6.76
2018-11-07T00:29:32.744Z,6.77
2018-11-07T00:30:32.726Z,6.74
2018-11-07T00:31:32.682Z,6.66
2018-11-07T00:32:32.628Z,6.52
2018-11-07T00:33:32.616Z,6.67
2018-11-07T00:34:32.546Z,6.40
2018-11-07T00:35:32.520Z,6.56
2018-11-07T00:36:32.460Z,6.54
2018-11-07T00:37:32.418Z,6.46
2018-11-07T00:38:32.378Z,6.44
2018-11-07T00:39:32.329Z,6.44
2018-11-07T00:40:32.299Z,6.31
2018-11-07T00:41:32.262Z,6.38
2018-11-07T00:42:32.213Z,6.30
2018-11-07T00:43:32.168Z,6.27
2018-11-07T00:44:32.136Z,6.34
2018-11-07T00:45:32.093Z,6.30
2018-11-07T00:46:32.050Z,6.49
2018-11-07T00:47:32.009Z,6.28
2018-11-07T00:48:31.982Z,6.38
2018-11-07T00:49:31.937Z,6.59
2018-11-07T00:50:31.876Z,6.48
2018-11-07T00:51:31.852Z,6.40
2018-11-07T00:52:31.822Z,6.41
2018-11-07T00:53:31.760Z,6.43
2018-11-07T00:54:31.724Z,6.51
2018-11-07T00:55:31.679Z,6.58
2018-11-07T00:56:31.653Z,6.55
2018-11-07T00:57:31.619Z,6.61
2018-11-07T00:58:31.549Z,6.51
2018-11-07T00:59:31.528Z,6.56
2018-11-07T01:00:31.474Z,6.67
2018-11-07T01:01:31.438Z,6.62
2018-11-07T01:02:31.408Z,6.51
2018-11-07T01:03:31.345Z,6.59
2018-11-07T01:04:31.291Z,6.48
2018-11-07T01:05:31.258Z,6.51
2018-11-07T01:06:31.229Z,6.40
2018-11-07T01:07:31.186Z,6.73
2018-11-07T01:08:31.142Z,6.85
2018-11-07T01:09:31.111Z,6.74
2018-11-07T01:10:31.068Z,6.67
2018-11-07T01:11:31.010Z,6.76
2018-11-07T01:12:30.973Z,7.02
2018-11-07T01:13:30.933Z,6.88
2018-11-07T01:14:30.890Z,6.89
2018-11-07T01:15:30.842Z,6.81
2018-11-07T01:16:30.870Z,6.71
2018-11-07T01:17:30.771Z,6.71
2018-11-07T01:18:30.725Z,6.59
2018-11-07T01:19:30.690Z,6.54
2018-11-07T01:20:30.658Z,6.49
2018-11-07T01:21:30.694Z,6.48
2018-11-07T01:22:30.551Z,6.36
2018-11-07T01:23:30.524Z,6.28
2018-11-07T01:24:30.469Z,6.27
2018-11-07T01:25:30.454Z,6.48
2018-11-07T01:26:30.401Z,6.46
2018-11-07T01:27:30.354Z,6.44
2018-11-07T01:28:30.304Z,6.40
2018-11-07T01:29:30.268Z,6.46
2018-11-07T01:30:30.229Z,6.43
2018-11-07T01:31:30.180Z,6.36
2018-11-07T01:32:30.148Z,6.31
2018-11-07T01:33:30.103Z,6.33
2018-11-07T01:34:30.071Z,6.34
2018-11-07T01:35:30.042Z,6.48
2018-11-07T01:36:29.977Z,6.43
2018-11-07T01:37:29.944Z,6.51
2018-11-07T01:38:29.908Z,6.48
2018-11-07T01:39:29.853Z,6.54
2018-11-07T01:40:29.817Z,6.66
2018-11-07T01:41:29.784Z,6.87
2018-11-07T01:42:29.734Z,6.80
2018-11-07T01:43:29.700Z,6.98
2018-11-07T01:44:29.693Z,6.99
2018-11-07T01:45:29.607Z,6.92
2018-11-07T01:46:29.561Z,6.81
2018-11-07T01:47:29.521Z,6.73
2018-11-07T01:48:29.492Z,6.66
2018-11-07T01:49:29.445Z,6.56
2018-11-07T01:50:29.416Z,6.55
2018-11-07T01:51:29.384Z,6.62
2018-11-07T01:52:29.326Z,6.69
2018-11-07T01:53:29.278Z,6.67
2018-11-07T01:54:29.226Z,6.67
2018-11-07T01:55:29.216Z,6.74
2018-11-07T01:56:29.149Z,6.58
2018-11-07T01:57:29.102Z,6.55
2018-11-07T01:58:29.072Z,6.71
2018-11-07T01:59:29.061Z,6.61
2018-11-07T02:00:28.993Z,6.76
2018-11-07T02:01:28.939Z,6.69
2018-11-07T02:02:28.916Z,6.69
2018-11-07T02:03:28.864Z,6.67
2018-11-07T02:04:28.841Z,6.55
2018-11-07T02:05:28.781Z,6.59
2018-11-07T02:06:28.744Z,6.59
2018-11-07T02:07:28.714Z,6.66
2018-11-07T02:08:28.704Z,6.59
2018-11-07T02:09:28.648Z,6.55
2018-11-07T02:10:28.580Z,6.43
2018-11-07T02:11:28.545Z,6.52
2018-11-07T02:12:28.492Z,6.52
2018-11-07T02:13:28.441Z,6.97
2018-11-07T02:14:28.400Z,6.99
2018-11-07T02:15:28.369Z,7.05
2018-11-07T02:16:28.330Z,7.23
2018-11-07T02:17:28.286Z,7.43
2018-11-07T02:18:28.338Z,7.75
2018-11-07T02:19:28.206Z,8.00
2018-11-07T02:20:28.154Z,7.87
2018-11-07T02:21:28.121Z,7.79
2018-11-07T02:22:28.070Z,7.83
2018-11-07T02:23:28.039Z,7.69
2018-11-07T02:24:28.002Z,7.55
2018-11-07T02:25:27.955Z,7.45
2018-11-07T02:26:27.972Z,7.27
2018-11-07T02:27:27.884Z,7.39
2018-11-07T02:28:27.819Z,7.75
2018-11-07T02:29:27.788Z,7.95
2018-11-07T02:30:27.749Z,8.01
2018-11-07T02:31:27.706Z,8.01
2018-11-07T02:32:27.937Z,8.04
2018-11-07T02:33:27.629Z,8.12
2018-11-07T02:34:27.605Z,8.16
2018-11-07T02:35:27.547Z,8.05
2018-11-07T02:36:27.517Z,7.97
2018-11-07T02:37:27.468Z,8.02
2018-11-07T02:38:27.418Z,8.12
2018-11-07T02:39:27.378Z,7.93
2018-11-07T02:40:27.332Z,7.89
2018-11-07T02:41:27.288Z,7.61
2018-11-07T02:42:27.252Z,7.49
2018-11-07T02:43:27.218Z,7.57
2018-11-07T02:44:27.170Z,7.46
2018-11-07T02:45:27.134Z,7.34
2018-11-07T02:46:27.079Z,7.37
2018-11-07T02:47:27.031Z,7.27
2018-11-07T02:48:27.012Z,7.17
2018-11-07T02:49:26.952Z,7.13
2018-11-07T02:50:26.946Z,7.06
2018-11-07T02:51:26.870Z,7.03
2018-11-07T02:52:26.845Z,7.05
2018-11-07T02:53:26.890Z,7.03
2018-11-07T02:54:26.760Z,7.20
2018-11-07T02:55:26.709Z,7.23
2018-11-07T02:56:26.692Z,7.25
2018-11-07T02:57:26.638Z,7.16
2018-11-07T02:58:26.589Z,7.09
2018-11-07T02:59:26.568Z,7.17
2018-11-07T03:00:26.545Z,7.15
2018-11-07T03:01:26.558Z,7.10
2018-11-07T03:02:26.426Z,7.17
2018-11-07T03:03:26.412Z,7.49
2018-11-07T03:04:26.368Z,7.64
2018-11-07T03:05:26.308Z,8.00
2018-11-07T03:06:26.258Z,8.22
2018-11-07T03:07:26.243Z,8.23
2018-11-07T03:08:26.193Z,8.15
2018-11-07T03:09:26.135Z,8.08
2018-11-07T03:10:26.132Z,8.18
2018-11-07T03:11:26.066Z,8.16
2018-11-07T03:12:26.011Z,8.23
2018-11-07T03:13:25.985Z,8.45
2018-11-07T03:14:25.940Z,8.66
2018-11-07T03:15:25.888Z,8.84
2018-11-07T03:16:25.860Z,8.87
2018-11-07T03:17:25.824Z,8.86
2018-11-07T03:18:25.777Z,8.63
2018-11-07T03:19:25.737Z,8.22
2018-11-07T03:20:25.693Z,8.16
2018-11-07T03:21:25.658Z,7.97
2018-11-07T03:22:25.619Z,7.89
2018-11-07T03:23:25.577Z,7.75
2018-11-07T03:24:25.529Z,7.82
2018-11-07T03:25:25.479Z,7.83
2018-11-07T03:26:25.445Z,7.69
2018-11-07T03:27:25.421Z,7.63
2018-11-07T03:28:25.367Z,7.63
2018-11-07T03:29:25.323Z,7.50
2018-11-07T03:30:25.283Z,7.55
2018-11-07T03:31:25.263Z,7.43
2018-11-07T03:32:25.208Z,7.48
2018-11-07T03:33:25.161Z,7.50
2018-11-07T03:34:25.120Z,7.17
2018-11-07T03:35:25.099Z,7.03
2018-11-07T03:36:25.048Z,7.06
2018-11-07T03:37:25.005Z,7.21
2018-11-07T03:38:24.964Z,7.16
2018-11-07T03:39:24.909Z,7.13
2018-11-07T03:40:24.882Z,7.34
2018-11-07T03:41:24.836Z,7.43
2018-11-07T03:42:24.788Z,7.31
2018-11-07T03:43:24.760Z,7.39
2018-11-07T03:44:24.714Z,7.28
2018-11-07T03:45:24.670Z,7.40
2018-11-07T03:46:24.635Z,7.55
2018-11-07T03:47:24.587Z,7.40
2018-11-07T03:48:24.557Z,7.46
2018-11-07T03:49:24.520Z,7.45
2018-11-07T03:50:24.461Z,7.43
2018-11-07T03:51:24.423Z,7.48
2018-11-07T03:52:24.394Z,7.43
2018-11-07T03:53:24.454Z,7.40
2018-11-07T03:54:24.321Z,7.37
2018-11-07T03:55:24.296Z,7.17
2018-11-07T03:56:24.225Z,7.28
2018-11-07T03:57:24.178Z,7.12
2018-11-07T03:58:24.153Z,7.07
2018-11-07T03:59:24.143Z,7.10
2018-11-07T04:00:24.063Z,7.39
2018-11-07T04:01:24.023Z,7.43
2018-11-07T04:02:23.987Z,7.28
2018-11-07T04:03:23.928Z,7.25
2018-11-07T04:04:23.896Z,7.53
2018-11-07T04:05:23.850Z,7.61
2018-11-07T04:06:23.816Z,7.75
2018-11-07T04:07:23.772Z,7.68
2018-11-07T04:08:23.737Z,7.75
2018-11-07T04:09:23.692Z,7.86
2018-11-07T04:10:23.643Z,8.00
2018-11-07T04:11:23.624Z,7.97
2018-11-07T04:12:23.583Z,7.95
2018-11-07T04:13:23.527Z,7.92
2018-11-07T04:14:23.487Z,7.86
2018-11-07T04:15:23.449Z,7.72
2018-11-07T04:16:23.413Z,7.72
2018-11-07T04:17:23.369Z,7.74
2018-11-07T04:18:23.331Z,7.49
2018-11-07T04:19:23.280Z,7.40
2018-11-07T04:20:23.245Z,7.23
2018-11-07T04:21:23.200Z,7.24
2018-11-07T04:22:23.173Z,7.17
2018-11-07T04:23:23.123Z,7.12
2018-11-07T04:24:23.067Z,6.99
2018-11-07T04:25:23.035Z,6.94
2018-11-07T04:26:22.998Z,6.74
2018-11-07T04:27:22.953Z,6.77
2018-11-07T04:28:22.904Z,6.69
2018-11-07T04:29:22.861Z,6.76
2018-11-07T04:30:22.837Z,7.17
2018-11-07T04:31:22.826Z,7.28
2018-11-07T04:32:22.790Z,7.25
2018-11-07T04:33:22.709Z,7.05
2018-11-07T04:34:22.671Z,7.23
2018-11-07T04:35:22.614Z,7.16
2018-11-07T04:36:22.581Z,7.52
2018-11-07T04:37:22.536Z,7.42
2018-11-07T04:38:22.498Z,7.27
2018-11-07T04:39:22.451Z,7.31
2018-11-07T04:40:22.420Z,7.28
2018-11-07T04:41:22.387Z,7.03
2018-11-07T04:42:22.336Z,7.24
2018-11-07T04:43:22.311Z,7.28
2018-11-07T04:44:22.245Z,7.07
2018-11-07T04:45:22.314Z,7.02
2018-11-07T04:46:22.166Z,7.02
2018-11-07T04:47:22.127Z,6.87
2018-11-07T04:48:22.097Z,6.88
2018-11-07T04:49:22.040Z,7.16
2018-11-07T04:50:22.003Z,7.21
2018-11-07T04:51:21.972Z,7.16
2018-11-07T04:52:21.931Z,7.17
2018-11-07T04:53:21.879Z,7.09
2018-11-07T04:54:21.840Z,7.05
2018-11-07T04:55:21.800Z,7.06
2018-11-07T04:56:21.753Z,7.24
2018-11-07T04:57:21.724Z,7.24
2018-11-07T04:58:21.675Z,7.46
2018-11-07T04:59:21.635Z,7.52
2018-11-07T05:00:21.685Z,7.39
2018-11-07T05:01:21.586Z,7.39
2018-11-07T05:02:21.527Z,7.42
2018-11-07T05:03:21.475Z,7.52
2018-11-07T05:04:21.432Z,7.79
2018-11-07T05:05:21.389Z,7.87
2018-11-07T05:06:21.369Z,7.74
2018-11-07T05:07:21.309Z,7.53
2018-11-07T05:08:21.283Z,7.42
2018-11-07T05:09:21.234Z,7.24
2018-11-07T05:10:21.185Z,7.10
2018-11-07T05:11:21.148Z,7.02
2018-11-07T05:12:21.130Z,6.98
2018-11-07T05:13:21.059Z,6.85
2018-11-07T05:14:21.021Z,6.69
2018-11-07T05:15:20.978Z,6.66
2018-11-07T05:16:20.961Z,6.55
2018-11-07T05:17:20.892Z,6.51
2018-11-07T05:18:20.861Z,6.59
2018-11-07T05:19:20.805Z,6.51
2018-11-07T05:20:20.781Z,6.48
2018-11-07T05:21:20.741Z,6.43
2018-11-07T05:22:20.697Z,6.30
2018-11-07T05:23:20.654Z,6.36
2018-11-07T05:24:20.610Z,6.44
2018-11-07T05:25:20.564Z,6.55
2018-11-07T05:26:20.619Z,6.69
2018-11-07T05:27:20.491Z,6.52
2018-11-07T05:28:20.445Z,6.48
2018-11-07T05:29:20.398Z,6.52
2018-11-07T05:30:20.349Z,6.56
2018-11-07T05:31:20.335Z,6.61
2018-11-07T05:32:20.291Z,6.54
2018-11-07T05:33:20.261Z,6.69
2018-11-07T05:34:20.196Z,6.73
2018-11-07T05:35:20.155Z,6.73
2018-11-07T05:36:20.115Z,6.56
2018-11-07T05:37:20.073Z,6.49
2018-11-07T05:38:20.031Z,6.40
2018-11-07T05:39:19.998Z,6.40
2018-11-07T05:40:19.957Z,6.38
2018-11-07T05:41:19.964Z,6.52
2018-11-07T05:42:19.873Z,6.40
2018-11-07T05:43:19.823Z,6.55
2018-11-07T05:44:19.808Z,6.56
2018-11-07T05:45:19.734Z,6.62
2018-11-07T05:46:19.694Z,6.70
2018-11-07T05:47:19.665Z,6.76
2018-11-07T05:48:19.632Z,6.73
2018-11-07T05:49:19.579Z,6.61
2018-11-07T05:50:19.551Z,6.77
2018-11-07T05:51:19.488Z,6.71
2018-11-07T05:52:19.458Z,6.66
2018-11-07T05:53:19.416Z,6.87
2018-11-07T05:54:19.378Z,7.09
2018-11-07T05:55:19.335Z,6.87
2018-11-07T05:56:19.311Z,6.77
2018-11-07T05:57:19.248Z,6.54
2018-11-07T05:58:19.197Z,6.56
2018-11-07T05:59:19.193Z,6.49
2018-11-07T06:00:19.119Z,6.33
2018-11-07T06:01:19.084Z,6.33
2018-11-07T06:02:19.045Z,6.33
2018-11-07T06:03:19.014Z,6.31
2018-11-07T06:04:18.956Z,6.46
2018-11-07T06:05:18.934Z,6.37
2018-11-07T06:06:18.869Z,6.43
2018-11-07T06:07:18.835Z,6.46
2018-11-07T06:08:18.803Z,6.46
2018-11-07T06:09:18.753Z,6.30
2018-11-07T06:10:18.714Z,6.34
2018-11-07T06:11:18.697Z,6.30
2018-11-07T06:12:18.629Z,6.17
2018-11-07T06:13:18.585Z,6.22
2018-11-07T06:14:18.547Z,6.08
2018-11-07T06:15:18.531Z,6.09
2018-11-07T06:16:18.507Z,5.85
2018-11-07T06:17:18.426Z,5.99
2018-11-07T06:18:18.368Z,5.78
2018-11-07T06:19:18.343Z,5.75
2018-11-07T06:20:18.302Z,5.75
2018-11-07T06:21:18.270Z,5.75
2018-11-07T06:22:18.275Z,5.75
2018-11-07T06:23:18.176Z,5.76
2018-11-07T06:24:18.241Z,5.91
2018-11-07T06:25:18.083Z,5.86
2018-11-07T06:26:18.039Z,5.93
2018-11-07T06:27:17.995Z,5.85
2018-11-07T06:28:17.961Z,5.94
2018-11-07T06:29:17.905Z,6.09
2018-11-07T06:30:17.877Z,6.04
2018-11-07T06:31:17.835Z,6.15
2018-11-07T06:32:17.781Z,6.19
2018-11-07T06:33:17.753Z,6.08
2018-11-07T06:34:17.726Z,6.12
2018-11-07T06:35:17.673Z,6.08
2018-11-07T06:36:17.626Z,6.03
2018-11-07T06:37:17.598Z,6.01
2018-11-07T06:38:17.554Z,6.09
2018-11-07T06:39:17.517Z,6.08
2018-11-07T06:40:17.468Z,6.03
2018-11-07T06:41:17.428Z,6.00
2018-11-07T06:42:17.377Z,6.08
2018-11-07T06:43:17.332Z,6.15
2018-11-07T06:44:17.291Z,6.17
2018-11-07T06:45:17.273Z,6.06
2018-11-07T06:46:17.210Z,6.19
2018-11-07T06:47:17.178Z,6.22
2018-11-07T06:48:17.158Z,6.19
2018-11-07T06:49:17.078Z,6.18
2018-11-07T06:50:17.053Z,6.22
2018-11-07T06:51:17.005Z,6.33
2018-11-07T06:52:16.962Z,6.28
2018-11-07T06:53:16.926Z,6.22
2018-11-07T06:54:16.876Z,6.34
2018-11-07T06:55:16.840Z,6.40
2018-11-07T06:56:16.793Z,6.48
2018-11-07T06:57:16.764Z,6.40
2018-11-07T06:58:16.724Z,6.33
2018-11-07T06:59:16.683Z,6.48
2018-11-07T07:00:16.638Z,6.44
2018-11-07T07:01:16.658Z,6.49
2018-11-07T07:02:16.548Z,6.55
2018-11-07T07:03:16.507Z,6.67
2018-11-07T07:04:16.577Z,6.62
2018-11-07T07:05:16.421Z,6.76
2018-11-07T07:06:16.392Z,6.81
2018-11-07T07:07:16.344Z,6.84
2018-11-07T07:08:16.307Z,6.89
2018-11-07T07:09:16.257Z,7.05
2018-11-07T07:10:16.238Z,7.32
2018-11-07T07:11:16.174Z,7.48
2018-11-07T07:12:16.211Z,7.42
2018-11-07T07:13:16.097Z,7.35
2018-11-07T07:14:16.056Z,7.50
2018-11-07T07:15:16.010Z,7.46
2018-11-07T07:16:15.967Z,7.53
2018-11-07T07:17:15.952Z,7.57
2018-11-07T07:18:15.972Z,7.43
2018-11-07T07:19:15.841Z,7.32
2018-11-07T07:20:15.807Z,7.30
2018-11-07T07:21:15.809Z,7.28
2018-11-07T07:22:15.761Z,7.42
2018-11-07T07:23:15.696Z,7.46
2018-11-07T07:24:15.634Z,7.46
2018-11-07T07:25:15.616Z,7.43
2018-11-07T07:26:15.559Z,7.37
2018-11-07T07:27:15.533Z,7.37
2018-11-07T07:28:15.469Z,7.45
2018-11-07T07:29:15.441Z,7.28
2018-11-07T07:30:15.407Z,7.35
2018-11-07T07:31:15.378Z,7.23
2018-11-07T07:32:15.313Z,7.35
2018-11-07T07:33:15.316Z,7.35
2018-11-07T07:34:15.252Z,7.46
2018-11-07T07:35:15.207Z,7.68
2018-11-07T07:36:15.157Z,7.68
2018-11-07T07:37:15.114Z,7.79
2018-11-07T07:38:15.085Z,7.87
2018-11-07T07:39:15.057Z,7.90
2018-11-07T07:40:14.985Z,7.97
2018-11-07T07:41:14.948Z,8.16
2018-11-07T07:42:14.912Z,8.15
2018-11-07T07:43:14.873Z,8.19
2018-11-07T07:44:14.823Z,8.16
2018-11-07T07:45:14.789Z,8.23
2018-11-07T07:46:14.758Z,8.25
2018-11-07T07:47:14.708Z,8.36
2018-11-07T07:48:14.681Z,8.65
2018-11-07T07:49:14.678Z,8.65
2018-11-07T07:50:14.587Z,8.70
2018-11-07T07:51:14.547Z,8.87
2018-11-07T07:52:14.578Z,8.87
2018-11-07T07:53:14.576Z,8.83
2018-11-07T07:54:14.445Z,9.02
2018-11-07T07:55:14.394Z,9.17
2018-11-07T07:56:14.361Z,9.31
2018-11-07T07:57:14.321Z,9.53
2018-11-07T07:58:14.285Z,9.47
2018-11-07T07:59:14.232Z,9.47
2018-11-07T08:00:14.201Z,9.54
2018-11-07T08:01:14.151Z,9.68
2018-11-07T08:02:14.109Z,9.90
2018-11-07T08:03:14.070Z,10.11
2018-11-07T08:04:14.057Z,10.05
2018-11-07T08:05:14.013Z,10.18
2018-11-07T08:06:13.967Z,10.52
2018-11-07T08:07:13.914Z,10.61
2018-11-07T08:08:13.875Z,10.67
2018-11-07T08:09:13.842Z,10.76
2018-11-07T08:10:13.811Z,11.02
2018-11-07T08:11:13.779Z,11.21
2018-11-07T08:12:13.733Z,11.51
2018-11-07T08:13:13.693Z,11.60
2018-11-07T08:14:13.665Z,11.69
2018-11-07T08:15:13.631Z,11.86
2018-11-07T08:16:13.586Z,12.05
2018-11-07T08:17:13.553Z,12.12
2018-11-07T08:18:13.513Z,12.23
2018-11-07T08:19:13.476Z,12.19
2018-11-07T08:20:13.446Z,12.19
2018-11-07T08:21:13.485Z,11.83
2018-11-07T08:22:13.371Z,11.67
2018-11-07T08:23:13.356Z,11.75
2018-11-07T08:24:13.310Z,11.78
2018-11-07T08:25:13.265Z,11.69
2018-11-07T08:26:13.222Z,11.76
2018-11-07T08:27:13.188Z,11.94
2018-11-07T08:28:13.171Z,12.01
2018-11-07T08:29:13.116Z,12.14
2018-11-07T08:30:13.074Z,12.32
2018-11-07T08:31:13.046Z,12.47
2018-11-07T08:32:13.003Z,12.53
2018-11-07T08:33:12.976Z,12.64
2018-11-07T08:34:12.936Z,12.74
2018-11-07T08:35:12.907Z,12.62
2018-11-07T08:36:12.866Z,12.62
2018-11-07T08:37:12.823Z,12.90
2018-11-07T08:38:12.800Z,12.95
2018-11-07T08:39:12.762Z,13.10
2018-11-07T08:40:12.734Z,13.19
2018-11-07T08:41:12.694Z,13.28
2018-11-07T08:42:12.728Z,13.23
2018-11-07T08:43:12.617Z,13.33
2018-11-07T08:44:12.589Z,13.60
2018-11-07T08:45:12.561Z,13.73
2018-11-07T08:46:12.515Z,13.82
2018-11-07T08:47:12.488Z,14.03
2018-11-07T08:48:12.472Z,14.33
2018-11-07T08:49:12.471Z,14.25
2018-11-07T08:50:12.378Z,14.22
2018-11-07T08:51:12.362Z,14.27
2018-11-07T08:52:12.333Z,14.27
2018-11-07T08:53:12.273Z,14.22
2018-11-07T08:54:12.250Z,14.25
2018-11-07T08:55:12.312Z,14.37
2018-11-07T08:56:12.174Z,14.69
2018-11-07T08:57:12.143Z,14.92
2018-11-07T08:58:12.113Z,14.92
2018-11-07T08:59:12.089Z,15.02
2018-11-07T09:00:12.048Z,15.19
2018-11-07T09:01:12.137Z,15.31
2018-11-07T09:02:12.057Z,15.41
2018-11-07T09:03:11.956Z,15.71
2018-11-07T09:04:11.933Z,15.82
2018-11-07T09:05:11.902Z,15.82
2018-11-07T09:06:11.867Z,15.92
2018-11-07T09:07:11.839Z,16.35
2018-11-07T09:08:11.810Z,16.43
2018-11-07T09:09:11.770Z,16.52
2018-11-07T09:10:11.739Z,16.52
2018-11-07T09:11:11.717Z,16.70
2018-11-07T09:12:11.784Z,16.68
2018-11-07T09:13:11.661Z,17.01
2018-11-07T09:14:11.615Z,17.19
2018-11-07T09:15:11.589Z,17.25
2018-11-07T09:16:11.564Z,17.89
2018-11-07T09:17:11.543Z,18.20
2018-11-07T09:18:11.497Z,18.35
2018-11-07T09:19:11.478Z,18.65
2018-11-07T09:20:11.456Z,18.63
2018-11-07T09:21:11.424Z,18.52
2018-11-07T09:22:11.395Z,18.03
2018-11-07T09:23:11.359Z,18.02
2018-11-07T09:24:11.387Z,17.92
2018-11-07T09:25:11.308Z,17.75
2018-11-07T09:26:11.294Z,17.70
2018-11-07T09:27:11.263Z,17.56
2018-11-07T09:28:11.231Z,17.36
2018-11-07T09:29:11.287Z,16.86
2018-11-07T09:30:11.188Z,16.66
2018-11-07T09:31:11.179Z,16.75
2018-11-07T09:32:11.126Z,17.00
2018-11-07T09:33:11.105Z,17.36
2018-11-07T09:34:11.074Z,17.96
2018-11-07T09:35:11.054Z,18.05
2018-11-07T09:36:11.012Z,18.18
2018-11-07T09:37:10.999Z,18.20
2018-11-07T09:38:10.976Z,18.00
2018-11-07T09:39:10.973Z,18.02
2018-11-07T09:40:10.936Z,18.37
2018-11-07T09:41:10.902Z,18.58
2018-11-07T09:42:10.870Z,19.02
2018-11-07T09:43:10.847Z,19.63
2018-11-07T09:44:10.814Z,19.74
2018-11-07T09:45:10.790Z,19.43
2018-11-07T09:46:10.785Z,18.54
2018-11-07T09:47:10.730Z,18.35
2018-11-07T09:48:10.777Z,18.11
2018-11-07T09:49:10.696Z,17.75
2018-11-07T09:50:10.661Z,17.51
2018-11-07T09:51:10.628Z,17.23
2018-11-07T09:52:10.614Z,17.36
2018-11-07T09:53:10.577Z,17.33
2018-11-07T09:54:10.604Z,17.26
2018-11-07T09:55:10.512Z,17.33
2018-11-07T09:56:10.508Z,17.31
2018-11-07T09:57:10.467Z,17.52
2018-11-07T09:58:10.454Z,17.72
2018-11-07T09:59:10.452Z,17.62
2018-11-07T10:00:10.403Z,17.90
2018-11-07T10:01:10.376Z,18.03
2018-11-07T10:02:10.339Z,18.11
2018-11-07T10:03:10.314Z,18.18
2018-11-07T10:04:10.280Z,18.07
2018-11-07T10:05:10.274Z,18.10
2018-11-07T10:06:10.255Z,18.14
2018-11-07T10:07:10.213Z,18.17
2018-11-07T10:08:10.174Z,18.47
2018-11-07T10:09:10.159Z,18.27
2018-11-07T10:10:10.124Z,18.58
2018-11-07T10:11:10.113Z,18.72
2018-11-07T10:12:10.087Z,18.88
2018-11-07T10:13:10.056Z,19.11
2018-11-07T10:14:10.004Z,19.16
2018-11-07T10:15:09.988Z,19.32
2018-11-07T10:16:09.960Z,19.25
2018-11-07T10:17:09.947Z,19.29
2018-11-07T10:18:09.902Z,19.39
2018-11-07T10:19:09.893Z,19.11
2018-11-07T10:20:09.855Z,18.62
2018-11-07T10:21:09.834Z,18.41
2018-11-07T10:22:09.812Z,18.45
2018-11-07T10:23:09.783Z,18.62
2018-11-07T10:24:09.747Z,18.69
2018-11-07T10:25:09.733Z,18.57
2018-11-07T10:26:09.727Z,18.75
2018-11-07T10:27:09.766Z,18.88
2018-11-07T10:28:10.133Z,18.70
2018-11-07T10:29:09.864Z,18.72
2018-11-07T10:30:09.692Z,18.82
2018-11-07T10:31:09.566Z,19.08
2018-11-07T10:32:09.558Z,19.26
2018-11-07T10:33:09.499Z,19.32
2018-11-07T10:34:09.489Z,19.06
2018-11-07T10:35:09.456Z,19.22
2018-11-07T10:36:09.451Z,19.10
2018-11-07T10:37:09.405Z,18.65
2018-11-07T10:38:09.507Z,18.35
2018-11-07T10:39:09.356Z,18.29
2018-11-07T10:40:09.329Z,18.32
2018-11-07T10:41:09.326Z,18.45
2018-11-07T10:42:09.274Z,18.30
2018-11-07T10:43:09.272Z,18.23
2018-11-07T10:44:09.246Z,18.35
2018-11-07T10:45:09.208Z,18.45
2018-11-07T10:46:09.230Z,18.62
2018-11-07T10:47:09.144Z,18.94
2018-11-07T10:48:09.108Z,19.47
2018-11-07T10:49:09.099Z,19.81
2018-11-07T10:50:09.063Z,19.83
2018-11-07T10:51:09.069Z,19.51
2018-11-07T10:52:09.039Z,19.78
2018-11-07T10:53:08.974Z,19.78
2018-11-07T10:54:08.954Z,19.48
2018-11-07T10:55:08.915Z,18.94
2018-11-07T10:56:08.886Z,18.60
2018-11-07T10:57:08.868Z,18.54
2018-11-07T10:58:08.845Z,18.63
2018-11-07T10:59:08.831Z,18.75
2018-11-07T11:00:08.784Z,18.58
2018-11-07T11:01:08.768Z,18.52
2018-11-07T11:02:08.731Z,18.32
2018-11-07T11:03:08.715Z,18.15
2018-11-07T11:04:08.694Z,18.33
2018-11-07T11:05:08.737Z,18.29
2018-11-07T11:06:08.640Z,18.42
2018-11-07T11:07:08.628Z,18.60
2018-11-07T11:08:08.593Z,18.76
2018-11-07T11:09:08.565Z,19.13
2018-11-07T11:10:08.522Z,19.25
2018-11-07T11:11:08.549Z,18.90
2018-11-07T11:12:08.475Z,19.04
2018-11-07T11:13:08.456Z,19.14
2018-11-07T11:14:08.434Z,19.18
2018-11-07T11:15:08.388Z,19.43
2018-11-07T11:16:08.386Z,19.59
2018-11-07T11:17:08.359Z,19.73
2018-11-07T11:18:08.309Z,19.76
2018-11-07T11:19:08.300Z,19.58
2018-11-07T11:20:08.265Z,19.65
2018-11-07T11:21:08.232Z,19.62
2018-11-07T11:22:08.210Z,19.65
2018-11-07T11:23:08.191Z,19.36
2018-11-07T11:24:08.155Z,19.37
2018-11-07T11:25:08.132Z,19.26
2018-11-07T11:26:08.112Z,19.37
2018-11-07T11:27:08.134Z,19.66
2018-11-07T11:28:08.088Z,19.47
2018-11-07T11:29:08.039Z,19.37
2018-11-07T11:30:07.993Z,19.36
2018-11-07T11:31:07.980Z,19.74
2018-11-07T11:32:07.946Z,19.76
2018-11-07T11:33:07.946Z,19.74
2018-11-07T11:34:08.106Z,20.03
2018-11-07T11:35:08.033Z,19.92
2018-11-07T11:36:07.846Z,20.38
2018-11-07T11:37:07.839Z,20.57
2018-11-07T11:38:07.819Z,20.39
2018-11-07T11:39:07.774Z,20.13
2018-11-07T11:40:07.809Z,19.73
2018-11-07T11:41:07.819Z,19.46
2018-11-07T11:42:07.694Z,19.43
2018-11-07T11:43:07.668Z,19.63
2018-11-07T11:44:07.627Z,19.80
2018-11-07T11:45:07.604Z,20.01
2018-11-07T11:46:07.583Z,20.32
2018-11-07T11:47:07.565Z,20.20
2018-11-07T11:48:07.528Z,20.58
2018-11-07T11:49:07.587Z,20.74
2018-11-07T11:50:07.477Z,20.85
2018-11-07T11:51:07.469Z,21.10
2018-11-07T11:52:07.431Z,20.76
2018-11-07T11:53:07.396Z,20.50
2018-11-07T11:54:07.381Z,20.13
2018-11-07T11:55:07.345Z,20.01
2018-11-07T11:56:07.314Z,20.08
2018-11-07T11:57:07.297Z,19.98
2018-11-07T11:58:07.264Z,19.84
2018-11-07T11:59:07.363Z,19.71
2018-11-07T12:00:07.538Z,19.71
2018-11-07T12:01:07.189Z,19.40
2018-11-07T12:02:07.212Z,19.40
2018-11-07T12:03:07.158Z,19.29
2018-11-07T12:04:07.111Z,19.08
2018-11-07T12:05:07.093Z,19.08
2018-11-07T12:06:07.091Z,19.02
2018-11-07T12:07:07.060Z,18.87
2018-11-07T12:08:07.059Z,18.94
2018-11-07T12:09:07.032Z,19.14
2018-11-07T12:10:06.986Z,19.39
2018-11-07T12:11:06.943Z,19.16
2018-11-07T12:12:06.978Z,19.26
2018-11-07T12:13:06.934Z,19.25
2018-11-07T12:14:06.888Z,19.07
2018-11-07T12:15:06.883Z,19.39
2018-11-07T12:16:06.810Z,19.36
2018-11-07T12:17:06.804Z,19.29
2018-11-07T12:18:06.765Z,19.40
2018-11-07T12:19:06.735Z,19.23
2018-11-07T12:20:06.760Z,18.95
2018-11-07T12:21:06.699Z,18.88
2018-11-07T12:22:06.658Z,19.06
2018-11-07T12:23:06.631Z,18.80
2018-11-07T12:24:06.610Z,18.80
2018-11-07T12:25:06.604Z,18.58
2018-11-07T12:26:06.557Z,18.51
2018-11-07T12:27:06.532Z,18.55
2018-11-07T12:28:06.513Z,18.41
2018-11-07T12:29:06.479Z,18.21
2018-11-07T12:30:06.462Z,18.23
2018-11-07T12:31:06.435Z,18.30
2018-11-07T12:32:06.393Z,18.32
2018-11-07T12:33:06.393Z,18.44
2018-11-07T12:34:06.353Z,18.54
2018-11-07T12:35:06.321Z,18.67
2018-11-07T12:36:06.297Z,18.82
2018-11-07T12:37:06.329Z,18.94
2018-11-07T12:38:06.260Z,18.94
2018-11-07T12:39:06.217Z,18.95
2018-11-07T12:40:06.214Z,18.81
2018-11-07T12:41:06.167Z,18.91
2018-11-07T12:42:06.159Z,18.88
2018-11-07T12:43:06.117Z,18.62
2018-11-07T12:44:06.074Z,18.78
2018-11-07T12:45:06.054Z,18.63
2018-11-07T12:46:06.029Z,18.57
2018-11-07T12:47:06.014Z,18.63
2018-11-07T12:48:05.969Z,18.63
2018-11-07T12:49:05.938Z,18.62
2018-11-07T12:50:05.993Z,18.33
2018-11-07T12:51:05.895Z,18.26
2018-11-07T12:52:05.872Z,18.00
2018-11-07T12:53:05.846Z,17.96
2018-11-07T12:54:05.817Z,18.00
2018-11-07T12:55:05.783Z,17.71
2018-11-07T12:56:05.749Z,17.46
2018-11-07T12:57:05.759Z,17.38
2018-11-07T12:58:05.817Z,17.34
2018-11-07T12:59:05.696Z,17.33
2018-11-07T13:00:05.644Z,17.28
2018-11-07T13:01:05.621Z,17.26
2018-11-07T13:02:05.625Z,17.25
2018-11-07T13:03:05.726Z,17.07
2018-11-07T13:04:05.540Z,16.98
2018-11-07T13:05:05.544Z,16.83
2018-11-07T13:06:05.516Z,16.83
2018-11-07T13:07:05.484Z,16.63
2018-11-07T13:08:05.419Z,16.68